Time;durP1;ratioP1;P1;durP2;ratioP2;P2;SDS_P1;SDS_P2;PMS_P1;PMS_P2;Temp;Humidity;BMP_temperature;BMP_pressure;BME280_temperature;BME280_humidity;BME280_pressure;Samples;Min_cycle;Max_cycle;Signal;HPM_P1;HPM_P2
2023/06/02 00:00:00;;;;;;;5.90;2.20;;;16.00;92.60;;;;;;4995214;28;20581;-73
2023/06/02 00:02:33;;;;;;;4.17;2.40;;;16.10;92.60;;;;;;4999622;28;20644;-73
2023/06/02 00:04:59;;;;;;;5.60;2.63;;;16.10;92.60;;;;;;5012773;28;20581;-72
2023/06/02 00:07:26;;;;;;;4.30;2.57;;;16.10;92.50;;;;;;4995177;28;20596;-73
2023/06/02 00:09:52;;;;;;;4.00;3.10;;;16.20;92.60;;;;;;4991635;28;20621;-73
2023/06/02 00:12:18;;;;;;;6.07;2.90;;;16.20;92.80;;;;;;4975514;28;20975;-72
2023/06/02 00:14:44;;;;;;;3.63;2.57;;;16.20;92.60;;;;;;4993393;28;20677;-73
2023/06/02 00:17:10;;;;;;;5.50;2.73;;;16.20;92.40;;;;;;4992809;28;20178;-73
2023/06/02 00:19:42;;;;;;;6.50;3.03;;;16.20;92.30;;;;;;4993485;28;20592;-73
2023/06/02 00:22:13;;;;;;;3.97;2.50;;;16.20;92.20;;;;;;4991772;28;20594;-73
2023/06/02 00:24:42;;;;;;;4.47;2.20;;;16.10;92.10;;;;;;4993256;28;20637;-72
2023/06/02 00:27:09;;;;;;;7.90;2.73;;;16.10;92.00;;;;;;4998440;28;20680;-72
2023/06/02 00:29:35;;;;;;;3.83;2.60;;;16.10;91.90;;;;;;4979004;28;20601;-72
2023/06/02 00:32:00;;;;;;;3.67;2.23;;;16.10;92.00;;;;;;4994911;28;20601;-73
2023/06/02 00:34:26;;;;;;;6.53;2.60;;;16.10;92.00;;;;;;5011595;28;20629;-73
2023/06/02 00:36:52;;;;;;;5.53;2.90;;;16.00;92.10;;;;;;4994933;28;20585;-73
2023/06/02 00:39:18;;;;;;;4.63;3.30;;;16.10;92.10;;;;;;5016282;28;20250;-73
2023/06/02 00:41:45;;;;;;;8.90;3.60;;;16.00;92.00;;;;;;5011591;28;21055;-72
2023/06/02 00:44:11;;;;;;;6.95;4.22;;;16.00;92.10;;;;;;4993952;28;20267;-73
2023/06/02 00:46:37;;;;;;;6.27;3.70;;;16.00;92.00;;;;;;5012264;28;20603;-73
2023/06/02 00:49:03;;;;;;;7.10;3.87;;;16.00;92.00;;;;;;4994433;28;20594;-73
2023/06/02 00:51:29;;;;;;;7.40;3.80;;;16.00;92.00;;;;;;4977805;28;20186;-73
2023/06/02 00:53:55;;;;;;;5.70;4.20;;;16.00;91.90;;;;;;4978342;28;20624;-73
2023/06/02 00:56:23;;;;;;;7.73;4.43;;;16.00;92.00;;;;;;4978077;28;20924;-72
2023/06/02 00:58:49;;;;;;;6.07;4.50;;;16.00;92.00;;;;;;4994468;28;20589;-73
2023/06/02 01:01:18;;;;;;;4.80;3.87;;;15.90;91.90;;;;;;5010926;28;20589;-72
2023/06/02 01:03:46;;;;;;;7.30;3.90;;;15.90;92.00;;;;;;5011943;28;20748;-73
2023/06/02 01:06:15;;;;;;;3.80;3.27;;;15.90;91.80;;;;;;5010400;28;20629;-72
2023/06/02 01:08:43;;;;;;;4.80;3.67;;;15.90;91.80;;;;;;4975129;28;20602;-73
2023/06/02 01:11:09;;;;;;;4.57;3.07;;;15.80;91.70;;;;;;4973708;28;20601;-73
2023/06/02 01:13:36;;;;;;;4.50;3.50;;;15.80;91.80;;;;;;4995574;28;20623;-73
2023/06/02 01:16:02;;;;;;;4.90;3.10;;;15.70;91.90;;;;;;4991437;28;20669;-73
2023/06/02 01:18:29;;;;;;;3.33;2.50;;;15.70;91.90;;;;;;5010380;28;21201;-73
2023/06/02 01:21:01;;;;;;;4.07;2.60;;;15.70;91.90;;;;;;4994337;28;20632;-73
2023/06/02 01:23:32;;;;;;;4.30;2.83;;;15.70;91.90;;;;;;4993435;28;20645;-73
2023/06/02 01:25:57;;;;;;;5.20;2.70;;;15.60;91.90;;;;;;4971589;28;21020;-73
2023/06/02 01:28:24;;;;;;;2.97;2.20;;;15.60;91.90;;;;;;4978454;28;20633;-72
2023/06/02 01:30:56;;;;;;;2.90;1.97;;;15.60;91.90;;;;;;4977331;28;20198;-73
2023/06/02 01:33:28;;;;;;;4.10;2.33;;;15.60;91.90;;;;;;4990157;28;20630;-72
2023/06/02 01:35:58;;;;;;;4.73;2.50;;;15.60;92.00;;;;;;5002993;28;21180;-72
2023/06/02 01:38:26;;;;;;;4.33;2.10;;;15.60;91.80;;;;;;5007224;28;20586;-73
2023/06/02 01:40:54;;;;;;;4.53;1.83;;;15.60;91.80;;;;;;5022931;28;20940;-72
2023/06/02 01:43:19;;;;;;;3.00;2.10;;;15.60;91.80;;;;;;4977620;28;20654;-72
2023/06/02 01:45:46;;;;;;;3.70;2.03;;;15.50;91.70;;;;;;5017126;28;20934;-73
2023/06/02 01:48:13;;;;;;;2.57;1.87;;;15.60;92.00;;;;;;5006950;28;20590;-73
2023/06/02 01:50:39;;;;;;;5.83;3.00;;;15.60;91.80;;;;;;5006222;28;20672;-72
2023/06/02 01:53:05;;;;;;;3.37;2.27;;;15.60;91.90;;;;;;5027307;28;20622;-73
2023/06/02 01:55:33;;;;;;;4.85;2.50;;;15.60;92.00;;;;;;4974072;28;20586;-73
2023/06/02 01:57:59;;;;;;;3.25;2.42;;;15.60;91.90;;;;;;5023428;28;20237;-73
2023/06/02 02:00:26;;;;;;;3.30;2.07;;;15.60;92.00;;;;;;4993301;28;20178;-72
2023/06/02 02:02:53;;;;;;;3.37;2.13;;;15.60;92.10;;;;;;4992431;28;20621;-72
2023/06/02 02:05:19;;;;;;;4.45;2.65;;;15.60;92.00;;;;;;5011417;28;20673;-72
2023/06/02 02:07:47;;;;;;;3.63;2.27;;;15.60;92.00;;;;;;4992922;28;20285;-72
2023/06/02 02:10:14;;;;;;;5.13;3.55;;;15.60;92.00;;;;;;4993411;28;20272;-71
2023/06/02 02:12:40;;;;;;;4.30;2.57;;;15.60;92.00;;;;;;4993084;28;20535;-72
2023/06/02 02:15:07;;;;;;;2.93;2.17;;;15.60;92.00;;;;;;4977576;28;20578;-72
2023/06/02 02:17:44;;;;;;;5.17;3.33;;;15.60;92.00;;;;;;4976856;28;20641;-72
2023/06/02 02:20:19;;;;;;;4.73;2.40;;;15.60;92.10;;;;;;4993543;28;20639;-72
2023/06/02 02:22:48;;;;;;;2.60;1.90;;;15.60;92.00;;;;;;4976683;28;20591;-73
2023/06/02 02:25:14;;;;;;;3.63;3.30;;;15.60;92.10;;;;;;4993732;28;20639;-72
2023/06/02 02:27:40;;;;;;;3.97;3.23;;;15.60;92.00;;;;;;4993355;28;20667;-72
2023/06/02 02:30:07;;;;;;;5.10;3.70;;;15.60;91.90;;;;;;4997470;28;20627;-72
2023/06/02 02:32:36;;;;;;;3.20;2.80;;;15.60;91.90;;;;;;4977160;28;20582;-73
2023/06/02 02:35:03;;;;;;;5.47;3.90;;;15.50;91.90;;;;;;4999102;23;20605;-78
2023/06/02 02:37:29;;;;;;;6.10;3.13;;;15.50;91.80;;;;;;5031911;28;21092;-78
2023/06/02 02:39:57;;;;;;;5.90;3.30;;;15.50;91.80;;;;;;5000174;28;20596;-77
2023/06/02 02:42:22;;;;;;;3.60;3.07;;;15.50;91.80;;;;;;4980782;28;20581;-78
2023/06/02 02:44:48;;;;;;;5.40;3.10;;;15.40;91.80;;;;;;4997183;28;20213;-78
2023/06/02 02:47:14;;;;;;;4.37;2.27;;;15.30;92.10;;;;;;4997272;28;20914;-78
2023/06/02 02:49:40;;;;;;;4.47;2.70;;;15.40;91.80;;;;;;4995177;28;20179;-78
2023/06/02 02:52:06;;;;;;;5.47;2.77;;;15.30;91.90;;;;;;4961591;28;20189;-78
2023/06/02 02:54:32;;;;;;;3.53;2.40;;;15.30;91.80;;;;;;4994152;28;20585;-78
2023/06/02 02:56:58;;;;;;;6.17;2.90;;;15.30;91.80;;;;;;4977226;28;20684;-78
2023/06/02 02:59:25;;;;;;;3.63;2.00;;;15.30;91.70;;;;;;4977873;28;20230;-78
2023/06/02 03:01:52;;;;;;;3.90;2.53;;;15.30;91.70;;;;;;4976940;28;20737;-78
2023/06/02 03:04:22;;;;;;;6.70;3.47;;;15.20;91.70;;;;;;4978246;28;20712;-78
2023/06/02 03:06:50;;;;;;;3.43;2.57;;;15.20;91.50;;;;;;4969751;28;20627;-78
2023/06/02 03:09:19;;;;;;;4.30;2.53;;;15.20;91.50;;;;;;4942264;28;20645;-78
2023/06/02 03:11:45;;;;;;;7.20;4.03;;;15.20;91.50;;;;;;4974062;28;21043;-78
2023/06/02 03:14:11;;;;;;;5.77;3.53;;;15.20;91.50;;;;;;4973663;28;20599;-78
2023/06/02 03:16:40;;;;;;;7.28;4.10;;;15.10;91.40;;;;;;4974080;28;20637;-77
2023/06/02 03:19:08;;;;;;;5.50;3.73;;;15.20;91.50;;;;;;4957492;28;20175;-79
2023/06/02 03:21:41;;;;;;;6.97;3.17;;;15.10;91.50;;;;;;4957526;28;20586;-79
2023/06/02 03:24:14;;;;;;;7.30;3.30;;;15.00;91.40;;;;;;4960344;28;20207;-79
2023/06/02 03:26:42;;;;;;;3.60;3.25;;;15.00;91.30;;;;;;4957605;28;20279;-78
2023/06/02 03:29:09;;;;;;;4.25;3.13;;;15.00;91.40;;;;;;4957760;28;20171;-78
2023/06/02 03:31:36;;;;;;;8.73;2.80;;;15.00;91.40;;;;;;4967991;28;20190;-77
2023/06/02 03:34:04;;;;;;;3.95;2.58;;;14.90;91.30;;;;;;4976282;28;20179;-78
2023/06/02 03:36:34;;;;;;;6.28;2.90;;;15.00;91.40;;;;;;4979634;28;20220;-78
2023/06/02 03:39:04;;;;;;;7.15;3.88;;;15.00;91.40;;;;;;4974804;28;20678;-78
2023/06/02 03:41:30;;;;;;;7.50;4.30;;;14.90;91.30;;;;;;4988948;28;20180;-78
2023/06/02 03:43:56;;;;;;;7.47;3.58;;;14.90;91.30;;;;;;4973616;28;20290;-78
2023/06/02 03:46:23;;;;;;;4.63;2.88;;;14.90;91.30;;;;;;4989409;28;20560;-78
2023/06/02 03:48:49;;;;;;;5.53;3.20;;;14.80;91.30;;;;;;4974557;28;20175;-78
2023/06/02 03:51:14;;;;;;;5.93;3.60;;;14.80;91.40;;;;;;4956078;28;20254;-78
2023/06/02 03:53:40;;;;;;;7.75;3.72;;;14.80;91.40;;;;;;4989794;28;20179;-78
2023/06/02 03:56:06;;;;;;;5.10;3.53;;;14.80;91.40;;;;;;4973108;28;20199;-78
2023/06/02 03:58:32;;;;;;;4.50;3.13;;;14.80;91.40;;;;;;5001514;28;20221;-78
2023/06/02 04:00:58;;;;;;;7.07;3.92;;;14.80;91.40;;;;;;4993105;28;20198;-78
2023/06/02 04:03:24;;;;;;;7.03;3.50;;;14.80;91.40;;;;;;4976503;28;20199;-78
2023/06/02 04:05:50;;;;;;;8.73;3.90;;;14.80;91.30;;;;;;4960170;28;20676;-78
2023/06/02 04:08:16;;;;;;;7.40;4.60;;;14.80;91.30;;;;;;4987896;28;20184;-78
2023/06/02 04:10:43;;;;;;;7.97;3.85;;;14.80;91.30;;;;;;4989551;28;20172;-78
2023/06/02 04:13:09;;;;;;;5.47;4.25;;;14.90;91.30;;;;;;4988849;28;20186;-78
2023/06/02 04:15:36;;;;;;;7.45;4.22;;;14.80;91.20;;;;;;4973086;28;20199;-78
2023/06/02 04:18:03;;;;;;;4.05;2.88;;;14.80;91.10;;;;;;4988977;28;20194;-78
2023/06/02 04:20:29;;;;;;;8.27;4.85;;;14.80;91.10;;;;;;4972670;28;20180;-78
2023/06/02 04:22:55;;;;;;;9.73;4.87;;;14.80;91.10;;;;;;4972748;28;20210;-78
2023/06/02 04:25:21;;;;;;;6.13;4.05;;;14.80;91.10;;;;;;4973969;28;20718;-78
2023/06/02 04:27:47;;;;;;;9.23;4.07;;;14.80;91.10;;;;;;4988137;28;20187;-78
2023/06/02 04:30:14;;;;;;;7.43;5.00;;;14.80;91.10;;;;;;4975371;28;20593;-79
2023/06/02 04:32:40;;;;;;;5.85;4.63;;;14.80;91.10;;;;;;4976274;28;20228;-79
2023/06/02 04:35:07;;;;;;;4.82;4.13;;;14.80;91.10;;;;;;4973303;28;20186;-78
2023/06/02 04:37:34;;;;;;;7.05;3.60;;;14.80;91.10;;;;;;4957722;28;20234;-78
2023/06/02 04:40:05;;;;;;;6.82;4.20;;;14.80;91.10;;;;;;4972321;28;20176;-78
2023/06/02 04:42:32;;;;;;;6.53;4.03;;;14.80;91.10;;;;;;4978981;28;20259;-79
2023/06/02 04:45:00;;;;;;;5.20;3.83;;;14.80;91.10;;;;;;5005006;28;20211;-79
2023/06/02 04:47:28;;;;;;;7.70;4.13;;;14.80;91.10;;;;;;4988473;28;20598;-79
2023/06/02 04:49:54;;;;;;;5.13;3.90;;;14.80;91.10;;;;;;4972283;28;20167;-78
2023/06/02 04:52:20;;;;;;;5.88;3.00;;;14.80;91.10;;;;;;4968169;28;20187;-78
2023/06/02 04:54:48;;;;;;;5.90;3.43;;;14.80;91.10;;;;;;4974693;28;20584;-78
2023/06/02 04:57:15;;;;;;;8.70;2.80;;;14.80;91.10;;;;;;4991295;28;20203;-78
2023/06/02 04:59:42;;;;;;;7.68;2.83;;;14.90;91.10;;;;;;4990510;28;20266;-78
2023/06/02 05:02:07;;;;;;;4.20;2.27;;;14.90;91.00;;;;;;4988111;28;20311;-78
2023/06/02 05:04:35;;;;;;;5.38;3.20;;;14.90;91.00;;;;;;4969992;28;20198;-78
2023/06/02 05:07:03;;;;;;;10.18;2.95;;;14.90;90.90;;;;;;5010952;28;20621;-78
2023/06/02 05:09:29;;;;;;;7.68;2.78;;;15.00;90.80;;;;;;5011226;28;20171;-78
2023/06/02 05:11:56;;;;;;;7.90;2.70;;;15.00;90.70;;;;;;5010684;28;20182;-78
2023/06/02 05:14:23;;;;;;;7.15;2.53;;;15.00;90.60;;;;;;5011892;28;20223;-77
2023/06/02 05:16:49;;;;;;;5.97;2.85;;;15.00;90.60;;;;;;5011026;28;20705;-78
2023/06/02 05:19:16;;;;;;;9.25;2.80;;;15.00;90.60;;;;;;5011274;28;20187;-78
2023/06/02 05:21:41;;;;;;;4.80;2.30;;;15.00;90.50;;;;;;5010810;28;20178;-78
2023/06/02 05:24:08;;;;;;;4.73;2.30;;;15.00;90.40;;;;;;4990787;28;21201;-78
2023/06/02 05:26:33;;;;;;;5.10;2.67;;;15.00;90.30;;;;;;5007011;28;20606;-78
2023/06/02 05:28:59;;;;;;;7.77;2.80;;;15.10;90.70;;;;;;4990380;28;20183;-78
2023/06/02 05:31:27;;;;;;;4.37;2.80;;;15.10;90.30;;;;;;4989617;28;20179;-78
2023/06/02 05:33:54;;;;;;;7.63;2.90;;;15.10;90.20;;;;;;4991003;28;20594;-78
2023/06/02 05:36:20;;;;;;;5.93;2.77;;;15.10;90.10;;;;;;4982066;28;20646;-77
2023/06/02 05:38:46;;;;;;;6.88;2.92;;;15.10;90.00;;;;;;4989188;28;20587;-77
2023/06/02 05:41:14;;;;;;;7.05;3.20;;;15.10;90.00;;;;;;4965264;28;20177;-78
2023/06/02 05:43:40;;;;;;;9.75;3.90;;;15.10;89.90;;;;;;4990128;28;20206;-78
2023/06/02 05:46:06;;;;;;;4.70;2.30;;;15.20;89.90;;;;;;4973540;28;20187;-78
2023/06/02 05:48:32;;;;;;;8.77;4.10;;;15.20;89.80;;;;;;4990062;28;21001;-78
2023/06/02 05:50:58;;;;;;;11.53;2.73;;;15.20;89.80;;;;;;4993966;28;20682;-78
2023/06/02 05:53:24;;;;;;;6.07;3.00;;;15.30;89.80;;;;;;4999540;28;20183;-76
2023/06/02 05:55:49;;;;;;;8.30;2.70;;;15.30;89.80;;;;;;5005450;28;20230;-78
2023/06/02 05:58:19;;;;;;;8.73;2.85;;;15.40;89.80;;;;;;4974269;28;20692;-77
2023/06/02 06:00:46;;;;;;;7.93;2.20;;;15.40;89.20;;;;;;4972139;28;20211;-80
2023/06/02 06:03:13;;;;;;;5.73;2.03;;;15.40;89.40;;;;;;5001382;28;20720;-79
2023/06/02 06:05:39;;;;;;;4.67;2.20;;;15.50;89.40;;;;;;4980374;28;20188;-80
2023/06/02 06:08:05;;;;;;;8.30;3.00;;;15.50;89.50;;;;;;5005468;28;20646;-79
2023/06/02 06:10:32;;;;;;;9.03;3.00;;;15.60;89.50;;;;;;4973542;28;21040;-79
2023/06/02 06:12:59;;;;;;;5.57;2.40;;;15.60;89.40;;;;;;4974106;28;20566;-79
2023/06/02 06:15:26;;;;;;;5.23;2.50;;;15.70;89.20;;;;;;4976623;28;20616;-78
2023/06/02 06:17:53;;;;;;;9.67;2.40;;;15.70;88.50;;;;;;4994813;28;20582;-78
2023/06/02 06:20:20;;;;;;;7.77;2.90;;;15.70;88.10;;;;;;4958687;28;20263;-76
2023/06/02 06:22:47;;;;;;;5.60;3.30;;;15.70;88.00;;;;;;4979116;28;20636;-79
2023/06/02 06:25:15;;;;;;;5.70;2.53;;;15.80;88.00;;;;;;4978109;28;20623;-78
2023/06/02 06:27:41;;;;;;;4.37;2.80;;;15.80;88.10;;;;;;4996776;28;20706;-79
2023/06/02 06:30:07;;;;;;;7.60;2.90;;;15.80;87.40;;;;;;4994214;28;20719;-78
2023/06/02 06:32:34;;;;;;;9.05;3.42;;;15.80;87.30;;;;;;4995148;28;21257;-77
2023/06/02 06:35:00;;;;;;;9.27;4.40;;;15.70;86.90;;;;;;4977878;28;20747;-77
2023/06/02 06:37:28;;;;;;;5.83;3.10;;;15.70;86.80;;;;;;4981186;28;20269;-76
2023/06/02 06:39:54;;;;;;;6.67;2.50;;;15.80;87.40;;;;;;4977236;28;20594;-77
2023/06/02 06:42:23;;;;;;;5.60;2.43;;;15.90;87.50;;;;;;4993980;28;20629;-77
2023/06/02 06:45:12;;;;;;;3.30;1.87;;;16.00;87.60;;;;;;4993644;28;20625;-77
2023/06/02 06:47:38;;;;;;;6.40;2.10;;;16.20;87.60;;;;;;4974628;28;20592;-77
2023/06/02 06:50:04;;;;;;;10.47;3.47;;;16.30;87.50;;;;;;4976945;28;20299;-76
2023/06/02 06:52:30;;;;;;;6.73;2.30;;;16.40;87.10;;;;;;4995165;28;20187;-78
2023/06/02 06:54:56;;;;;;;11.00;3.10;;;16.50;87.00;;;;;;4993019;28;20609;-77
2023/06/02 06:57:22;;;;;;;7.93;3.30;;;16.50;86.80;;;;;;4997419;28;20573;-77
2023/06/02 06:59:47;;;;;;;6.93;3.60;;;16.60;86.60;;;;;;5000680;28;20163;-77
2023/06/02 07:02:13;;;;;;;8.67;4.03;;;16.70;86.40;;;;;;4987817;28;20175;-77
2023/06/02 07:04:39;;;;;;;6.43;2.53;;;16.80;86.20;;;;;;5010703;28;20230;-78
2023/06/02 07:07:05;;;;;;;10.57;3.13;;;16.80;85.80;;;;;;4984283;28;20613;-77
2023/06/02 07:09:31;;;;;;;7.73;3.00;;;16.90;85.90;;;;;;4997142;28;20179;-77
2023/06/02 07:11:57;;;;;;;9.27;3.23;;;17.00;86.20;;;;;;4977151;28;20578;-75
2023/06/02 07:14:23;;;;;;;9.53;3.67;;;17.10;86.00;;;;;;4978762;28;20211;-77
2023/06/02 07:16:53;;;;;;;7.60;3.07;;;17.30;85.90;;;;;;4978438;28;20684;-77
2023/06/02 07:19:23;;;;;;;9.80;3.07;;;17.40;85.80;;;;;;4962178;28;20596;-77
2023/06/02 07:21:49;;;;;;;7.27;2.70;;;17.50;85.30;;;;;;4976703;28;20934;-77
2023/06/02 07:24:15;;;;;;;11.90;3.40;;;17.70;85.70;;;;;;4978393;28;20618;-77
2023/06/02 07:26:41;;;;;;;3.57;2.17;;;17.90;85.60;;;;;;4978330;28;20594;-78
2023/06/02 07:29:07;;;;;;;4.40;3.00;;;18.30;86.60;;;;;;4989738;28;20671;-77
2023/06/02 07:31:33;;;;;;;7.70;3.10;;;18.80;88.20;;;;;;4989032;28;20722;-78
2023/06/02 07:33:59;;;;;;;5.23;2.13;;;20.00;84.00;;;;;;4974315;28;20186;-79
2023/06/02 07:36:24;;;;;;;7.47;2.30;;;20.70;88.30;;;;;;4981443;28;20702;-79
2023/06/02 07:38:50;;;;;;;7.87;2.50;;;21.60;87.20;;;;;;4989495;28;20198;-78
2023/06/02 07:41:17;;;;;;;6.80;2.90;;;22.30;84.80;;;;;;4994221;28;20185;-79
2023/06/02 07:43:43;;;;;;;4.80;1.50;;;22.60;81.80;;;;;;4993999;28;20614;-79
2023/06/02 07:46:08;;;;;;;7.47;2.40;;;23.00;81.00;;;;;;4976032;28;21207;-79
2023/06/02 07:48:34;;;;;;;8.93;2.73;;;23.20;77.50;;;;;;4977592;28;20722;-78
2023/06/02 07:51:00;;;;;;;6.50;2.13;;;23.60;77.80;;;;;;4993424;28;20179;-78
2023/06/02 07:53:26;;;;;;;9.40;2.40;;;24.10;77.10;;;;;;4981161;28;20582;-76
2023/06/02 07:55:52;;;;;;;6.67;2.17;;;24.30;74.30;;;;;;4975788;28;20617;-78
2023/06/02 07:58:18;;;;;;;4.47;2.30;;;24.30;71.20;;;;;;4993999;28;20655;-78
2023/06/02 08:00:44;;;;;;;4.20;2.10;;;24.30;70.00;;;;;;4992044;28;20265;-78
2023/06/02 08:03:09;;;;;;;6.20;2.33;;;24.20;69.00;;;;;;4988084;28;21246;-78
2023/06/02 08:05:35;;;;;;;7.43;2.60;;;24.00;67.60;;;;;;4989204;28;20632;-77
2023/06/02 08:08:01;;;;;;;9.27;2.23;;;23.80;65.80;;;;;;4973739;28;20599;-78
2023/06/02 08:10:27;;;;;;;7.30;2.83;;;23.60;65.70;;;;;;4980077;28;20186;-77
2023/06/02 08:12:52;;;;;;;5.20;2.30;;;23.30;64.90;;;;;;4975148;28;20191;-76
2023/06/02 08:15:18;;;;;;;6.83;2.40;;;23.50;66.60;;;;;;4992252;28;20199;-78
2023/06/02 08:17:45;;;;;;;5.53;2.07;;;24.10;68.90;;;;;;5008219;28;20175;-78
2023/06/02 08:20:11;;;;;;;4.87;2.00;;;24.90;71.10;;;;;;4992589;28;20711;-78
2023/06/02 08:22:37;;;;;;;4.53;2.03;;;25.50;68.10;;;;;;4975781;28;20677;-78
2023/06/02 08:25:05;;;;;;;6.80;2.37;;;26.00;66.30;;;;;;4991546;28;21251;-78
2023/06/02 08:27:30;;;;;;;5.47;2.40;;;26.50;66.30;;;;;;4992495;28;20928;-77
2023/06/02 08:29:56;;;;;;;6.77;2.97;;;27.20;62.00;;;;;;4974896;28;20579;-78
2023/06/02 08:32:22;;;;;;;5.67;2.70;;;27.80;60.20;;;;;;4991723;28;20221;-78
2023/06/02 08:34:50;;;;;;;5.90;2.60;;;28.60;59.80;;;;;;4991235;28;20179;-78
2023/06/02 08:37:17;;;;;;;5.10;2.10;;;29.00;57.30;;;;;;5001798;28;20713;-78
2023/06/02 08:39:47;;;;;;;5.27;2.37;;;29.00;55.80;;;;;;5012408;23;20687;-76
2023/06/02 08:42:15;;;;;;;5.00;1.87;;;29.00;53.80;;;;;;5011274;28;20651;-75
2023/06/02 08:44:42;;;;;;;9.90;2.87;;;29.30;54.90;;;;;;5012565;28;20629;-76
2023/06/02 08:47:12;;;;;;;4.73;2.03;;;29.80;54.10;;;;;;5010819;28;20598;-75
2023/06/02 08:49:48;;;;;;;6.10;2.53;;;30.10;52.80;;;;;;5011141;28;20617;-75
2023/06/02 08:52:23;;;;;;;6.37;2.03;;;30.10;50.60;;;;;;5012025;28;20764;-75
2023/06/02 08:54:50;;;;;;;6.17;1.87;;;29.70;49.60;;;;;;5010997;28;20602;-75
2023/06/02 08:57:16;;;;;;;9.83;2.83;;;29.30;49.30;;;;;;5005270;28;21153;-75
2023/06/02 08:59:46;;;;;;;4.10;1.90;;;29.00;48.70;;;;;;4991107;28;20621;-75
2023/06/02 09:02:13;;;;;;;8.73;2.70;;;28.80;49.00;;;;;;4991706;28;20619;-75
2023/06/02 09:04:39;;;;;;;4.50;2.27;;;28.70;49.40;;;;;;5010369;28;20632;-75
2023/06/02 09:07:25;;;;;;;6.90;2.10;;;28.70;50.00;;;;;;5012594;28;20598;-75
2023/06/02 09:09:52;;;;;;;5.43;2.40;;;29.10;50.40;;;;;;5001757;28;20215;-74
2023/06/02 09:12:20;;;;;;;3.70;1.87;;;29.60;50.80;;;;;;5017769;28;20649;-74
2023/06/02 09:15:08;;;;;;;9.20;2.70;;;29.80;49.20;;;;;;4990756;28;20614;-75
2023/06/02 09:17:34;;;;;;;6.60;2.10;;;29.50;47.40;;;;;;4992521;28;20673;-74
2023/06/02 09:20:06;;;;;;;6.10;2.07;;;29.10;46.90;;;;;;4989745;28;20968;-75
2023/06/02 09:22:32;;;;;;;5.90;2.50;;;28.70;46.10;;;;;;4990126;28;20597;-75
2023/06/02 09:24:58;;;;;;;7.30;2.27;;;28.20;45.90;;;;;;4990537;28;20641;-75
2023/06/02 09:27:25;;;;;;;4.87;2.17;;;27.60;45.80;;;;;;4990245;28;21129;-74
2023/06/02 09:29:59;;;;;;;6.43;2.53;;;27.40;46.80;;;;;;4989819;28;20685;-75
2023/06/02 09:32:24;;;;;;;5.47;1.90;;;27.60;47.60;;;;;;4991965;28;20635;-75
2023/06/02 09:34:50;;;;;;;5.50;1.80;;;28.00;48.60;;;;;;4990738;28;20669;-75
2023/06/02 09:37:17;;;;;;;6.07;2.07;;;28.50;49.00;;;;;;4990652;28;20605;-76
2023/06/02 09:39:53;;;;;;;2.80;1.50;;;29.20;48.70;;;;;;4990543;28;20219;-77
2023/06/02 09:42:21;;;;;;;8.47;2.23;;;29.80;48.70;;;;;;5006424;28;20608;-78
2023/06/02 09:45:04;;;;;;;9.90;3.33;;;30.30;47.60;;;;;;4991820;28;20652;-78
2023/06/02 09:47:37;;;;;;;5.03;1.70;;;30.60;47.10;;;;;;5006621;28;20669;-78
2023/06/02 09:50:03;;;;;;;4.43;2.63;;;30.90;46.30;;;;;;5025905;28;20648;-78
2023/06/02 09:52:28;;;;;;;5.00;2.17;;;30.90;44.30;;;;;;4987226;28;20613;-77
2023/06/02 09:54:54;;;;;;;5.67;2.43;;;30.60;43.70;;;;;;5004285;28;21160;-77
2023/06/02 09:57:20;;;;;;;5.57;2.53;;;30.50;44.10;;;;;;4985495;28;20179;-77
2023/06/02 09:59:46;;;;;;;5.53;2.13;;;30.60;44.40;;;;;;4992969;28;20613;-77
2023/06/02 10:02:12;;;;;;;3.97;2.33;;;30.90;44.20;;;;;;5010934;28;20180;-78
2023/06/02 10:04:38;;;;;;;5.60;2.33;;;30.90;43.50;;;;;;4996835;28;21208;-78
2023/06/02 10:07:13;;;;;;;3.50;1.70;;;31.00;43.30;;;;;;5002539;28;20635;-77
2023/06/02 10:10:16;;;;;;;5.30;2.50;;;31.30;43.80;;;;;;5010776;28;20197;-77
2023/06/02 10:13:07;;;;;;;4.20;2.33;;;31.50;43.10;;;;;;4974836;28;20676;-77
2023/06/02 10:15:51;;;;;;;5.53;2.40;;;31.80;42.80;;;;;;4990123;28;20572;-78
2023/06/02 10:18:19;;;;;;;6.50;2.30;;;31.90;41.60;;;;;;4991543;28;20618;-77
2023/06/02 10:21:03;;;;;;;9.10;2.50;;;31.80;41.90;;;;;;4993561;28;20636;-77
2023/06/02 10:23:29;;;;;;;10.40;2.63;;;31.70;41.00;;;;;;4990425;28;21083;-77
2023/06/02 10:26:21;;;;;;;5.27;2.60;;;31.70;41.20;;;;;;4989668;28;20669;-77
2023/06/02 10:28:48;;;;;;;4.00;2.00;;;31.70;41.50;;;;;;4989905;28;20306;-77
2023/06/02 10:31:15;;;;;;;5.50;2.40;;;31.90;41.70;;;;;;4989313;28;20594;-77
2023/06/02 10:33:41;;;;;;;5.20;2.23;;;32.10;40.80;;;;;;4990075;28;20584;-77
2023/06/02 10:36:07;;;;;;;4.93;2.88;;;32.30;41.30;;;;;;5007627;28;20724;-78
2023/06/02 10:38:34;;;;;;;5.20;2.60;;;32.60;40.20;;;;;;5010885;28;20224;-79
2023/06/02 10:41:00;;;;;;;6.67;2.30;;;32.80;40.20;;;;;;5025873;28;20582;-78
2023/06/02 10:43:26;;;;;;;5.77;2.20;;;32.90;40.20;;;;;;5009720;28;21249;-78
2023/06/02 10:45:52;;;;;;;5.83;3.30;;;33.00;39.70;;;;;;4993677;28;20680;-78
2023/06/02 10:48:40;;;;;;;7.73;2.73;;;32.80;38.50;;;;;;5010575;28;20674;-79
2023/06/02 10:51:07;;;;;;;8.50;2.80;;;32.40;37.40;;;;;;5026217;28;20268;-77
2023/06/02 10:53:33;;;;;;;6.10;2.67;;;32.00;37.80;;;;;;5010588;28;20583;-77
2023/06/02 10:56:40;;;;;;;5.30;3.10;;;31.80;37.90;;;;;;4995905;28;20611;-77
2023/06/02 10:59:06;;;;;;;8.10;3.10;;;31.50;38.00;;;;;;5009363;28;20636;-78
2023/06/02 11:01:51;;;;;;;8.50;3.17;;;31.30;38.00;;;;;;5010637;28;20629;-77
2023/06/02 11:04:24;;;;;;;4.60;2.97;;;31.00;38.30;;;;;;5004467;28;20660;-78
2023/06/02 11:07:22;;;;;;;7.10;3.10;;;30.90;38.60;;;;;;5013219;28;20683;-78
2023/06/02 11:09:50;;;;;;;6.70;2.50;;;30.70;38.00;;;;;;5011941;28;20655;-78
2023/06/02 11:12:15;;;;;;;6.27;3.23;;;30.70;39.20;;;;;;5012912;28;20585;-78
2023/06/02 11:15:04;;;;;;;4.27;2.60;;;30.50;38.90;;;;;;5014010;28;20573;-78
2023/06/02 11:17:34;;;;;;;4.30;2.63;;;30.40;38.90;;;;;;5013170;28;20269;-78
2023/06/02 11:20:04;;;;;;;9.33;4.10;;;30.30;38.80;;;;;;4995782;28;20632;-78
2023/06/02 11:22:30;;;;;;;9.33;4.70;;;30.30;38.80;;;;;;5014158;28;20569;-78
2023/06/02 11:24:56;;;;;;;6.47;3.93;;;30.20;38.60;;;;;;5013721;28;20624;-78
2023/06/02 11:27:45;;;;;;;4.43;2.20;;;30.10;38.40;;;;;;5013872;28;20929;-77
2023/06/02 11:30:20;;;;;;;4.70;2.53;;;29.90;38.60;;;;;;5012441;28;20253;-78
2023/06/02 11:32:48;;;;;;;3.70;1.93;;;29.80;38.60;;;;;;5014867;28;20573;-78
2023/06/02 11:35:14;;;;;;;4.43;2.60;;;29.80;38.90;;;;;;5012915;28;21011;-79
2023/06/02 11:37:42;;;;;;;7.70;3.70;;;29.70;38.60;;;;;;5008860;28;20589;-79
2023/06/02 11:40:10;;;;;;;5.10;3.10;;;29.50;38.30;;;;;;5006129;28;20645;-79
2023/06/02 11:42:41;;;;;;;5.83;3.43;;;29.20;38.40;;;;;;5013362;28;20596;-79
2023/06/02 11:45:21;;;;;;;5.27;2.70;;;29.00;38.70;;;;;;5012615;28;20643;-78
2023/06/02 11:47:54;;;;;;;5.77;3.23;;;28.80;38.70;;;;;;5013373;28;20577;-78
2023/06/02 11:50:20;;;;;;;6.10;4.47;;;28.70;39.00;;;;;;5012304;28;20581;-78
2023/06/02 11:52:46;;;;;;;6.57;3.33;;;28.60;38.70;;;;;;5013027;28;20579;-78
2023/06/02 11:55:12;;;;;;;7.40;3.10;;;28.30;39.10;;;;;;5014499;28;20585;-78
2023/06/02 11:57:38;;;;;;;6.00;3.03;;;28.10;39.40;;;;;;5009947;28;20174;-78
2023/06/02 12:00:12;;;;;;;6.73;3.53;;;28.20;39.80;;;;;;4996894;28;20210;-79
2023/06/02 12:02:39;;;;;;;4.87;3.27;;;28.20;39.40;;;;;;4976309;28;20179;-78
2023/06/02 12:05:09;;;;;;;6.53;4.10;;;28.10;39.60;;;;;;4993105;28;20638;-78
2023/06/02 12:07:36;;;;;;;6.40;3.53;;;28.00;39.40;;;;;;4993798;28;20692;-78
2023/06/02 12:10:03;;;;;;;6.13;4.00;;;28.00;39.70;;;;;;4995679;28;20610;-79
2023/06/02 12:12:31;;;;;;;6.50;4.40;;;28.00;39.60;;;;;;5010544;28;20591;-78
2023/06/02 12:14:57;;;;;;;7.67;4.13;;;27.90;38.90;;;;;;5012950;28;20581;-77
2023/06/02 12:17:22;;;;;;;6.23;4.17;;;27.60;38.40;;;;;;5013513;28;20581;-79
2023/06/02 12:19:57;;;;;;;5.23;2.97;;;27.30;38.40;;;;;;5011126;28;20213;-79
2023/06/02 12:22:23;;;;;;;5.60;3.10;;;27.20;39.30;;;;;;5013006;28;20174;-78
2023/06/02 12:24:49;;;;;;;5.40;3.13;;;27.20;39.60;;;;;;5011609;28;20638;-78
2023/06/02 12:27:22;;;;;;;7.50;3.90;;;27.20;39.70;;;;;;5011928;28;20178;-78
2023/06/02 12:29:48;;;;;;;6.10;3.57;;;27.20;39.40;;;;;;5012869;28;20190;-79
2023/06/02 12:32:15;;;;;;;9.30;4.23;;;27.20;39.50;;;;;;5012656;28;20565;-79
2023/06/02 12:34:42;;;;;;;9.40;3.60;;;27.10;39.30;;;;;;5012851;28;20197;-79
2023/06/02 12:37:07;;;;;;;5.27;3.90;;;27.00;39.30;;;;;;5012532;28;20680;-79
2023/06/02 12:39:34;;;;;;;5.43;2.57;;;26.80;38.80;;;;;;5011538;28;20731;-78
2023/06/02 12:41:59;;;;;;;5.53;2.40;;;26.60;38.80;;;;;;5010362;28;20182;-79
2023/06/02 12:44:26;;;;;;;6.43;2.70;;;26.30;38.50;;;;;;5012942;28;20632;-78
2023/06/02 12:46:53;;;;;;;5.77;2.70;;;26.10;38.40;;;;;;5014480;28;20209;-79
2023/06/02 12:49:19;;;;;;;8.43;3.90;;;25.80;38.10;;;;;;5011582;28;20664;-79